createdAt,value
2023-02-27T00:01:40.190Z,100485.69
2023-02-27T00:04:06.544Z,100486.69
2023-02-27T00:06:32.922Z,100483.97
2023-02-27T00:08:59.217Z,100482.22
2023-02-27T00:11:26.097Z,100480.84
2023-02-27T00:13:52.850Z,100496.66
2023-02-27T00:16:19.193Z,100487.53
2023-02-27T00:18:45.661Z,100484.97
2023-02-27T00:21:11.951Z,100493.38
2023-02-27T00:23:38.458Z,100492.44
2023-02-27T00:26:04.945Z,100507.16
2023-02-27T00:28:31.233Z,100499.50
2023-02-27T00:30:58.139Z,100508.81
2023-02-27T00:33:24.523Z,100500.06
2023-02-27T00:36:01.643Z,100500.41
2023-02-27T00:38:28.503Z,100493.47
2023-02-27T00:40:57.504Z,100506.22
2023-02-27T00:43:24.098Z,100504.78
2023-02-27T00:45:50.442Z,100504.78
2023-02-27T00:48:16.887Z,100512.06
2023-02-27T00:50:43.598Z,100519.06
2023-02-27T00:53:10.098Z,100514.13
2023-02-27T00:55:36.517Z,100513.78
2023-02-27T00:58:03.083Z,100504.09
2023-02-27T01:00:30.230Z,100510.28
2023-02-27T01:02:56.574Z,100505.00
2023-02-27T01:05:23.748Z,100511.03
2023-02-27T01:07:50.967Z,100508.38
2023-02-27T01:10:17.646Z,100506.91
2023-02-27T01:12:43.979Z,100499.94
2023-02-27T01:15:11.808Z,100510.41
2023-02-27T01:17:38.459Z,100498.59
2023-02-27T01:20:07.226Z,100502.81
2023-02-27T01:22:34.079Z,100508.91
2023-02-27T01:25:00.984Z,100503.19
2023-02-27T01:27:27.716Z,100506.50
2023-02-27T01:29:54.015Z,100503.09
2023-02-27T01:32:20.498Z,100499.09
2023-02-27T01:34:46.993Z,100513.78
2023-02-27T01:37:13.499Z,100508.84
2023-02-27T01:39:42.633Z,100507.50
2023-02-27T01:42:24.585Z,100507.91
2023-02-27T01:45:11.862Z,100506.44
2023-02-27T01:47:42.044Z,100499.59
2023-02-27T01:50:10.313Z,100505.50
2023-02-27T01:52:38.495Z,100510.97
2023-02-27T01:55:08.178Z,100506.00
2023-02-27T01:57:35.999Z,100502.06
2023-02-27T02:00:02.825Z,100496.91
2023-02-27T02:02:42.493Z,100511.69
2023-02-27T02:05:09.656Z,100502.22
2023-02-27T02:07:40.071Z,100499.53
2023-02-27T02:10:07.917Z,100489.66
2023-02-27T02:12:38.119Z,100493.47
2023-02-27T02:15:06.055Z,100492.34
2023-02-27T02:18:06.971Z,100498.75
2023-02-27T02:20:54.655Z,100494.47
2023-02-27T02:23:39.666Z,100498.09
2023-02-27T02:26:19.608Z,100497.19
2023-02-27T02:29:22.830Z,100494.56
2023-02-27T02:32:34.920Z,100504.03
2023-02-27T02:35:45.815Z,100513.50
2023-02-27T02:38:43.846Z,100507.56
2023-02-27T02:41:36.835Z,100510.19
2023-02-27T02:44:28.834Z,100519.06
2023-02-27T02:47:22.783Z,100501.59
2023-02-27T02:50:05.260Z,100513.75
2023-02-27T02:52:43.873Z,100505.56
2023-02-27T02:55:15.987Z,100512.50
2023-02-27T02:57:58.511Z,100512.28
2023-02-27T03:00:31.654Z,100502.84
2023-02-27T03:03:12.491Z,100505.38
2023-02-27T03:05:52.754Z,100498.38
2023-02-27T03:08:25.804Z,100497.47
2023-02-27T03:11:01.063Z,100495.63
2023-02-27T03:13:34.901Z,100506.38
2023-02-27T03:16:33.628Z,100502.97
2023-02-27T03:19:08.827Z,100509.03
2023-02-27T03:21:41.231Z,100508.66
2023-02-27T03:24:12.717Z,100514.63
2023-02-27T03:26:42.317Z,100512.09
2023-02-27T03:29:12.498Z,100515.41
2023-02-27T03:32:01.045Z,100523.97
2023-02-27T03:34:31.286Z,100517.88
2023-02-27T03:37:21.756Z,100514.28
2023-02-27T03:40:10.645Z,100508.47
2023-02-27T03:42:46.309Z,100518.19
2023-02-27T03:45:38.511Z,100509.38
2023-02-27T03:48:06.782Z,100523.03
2023-02-27T03:50:35.557Z,100513.59
2023-02-27T03:53:06.948Z,100525.72
2023-02-27T03:55:39.551Z,100526.50
2023-02-27T03:58:05.949Z,100525.81
2023-02-27T04:00:33.362Z,100531.25
2023-02-27T04:03:00.857Z,100532.25
2023-02-27T04:05:29.562Z,100517.41
2023-02-27T04:08:43.368Z,100533.72
2023-02-27T04:11:38.935Z,100539.00
2023-02-27T04:14:23.429Z,100532.94
2023-02-27T04:17:03.668Z,100529.53
2023-02-27T04:19:36.181Z,100532.91
2023-02-27T04:22:26.886Z,100546.63
2023-02-27T04:25:05.271Z,100530.31
2023-02-27T04:28:01.978Z,100548.00
2023-02-27T04:30:49.262Z,100539.38
2023-02-27T04:33:43.076Z,100547.06
2023-02-27T04:36:18.749Z,100550.78
2023-02-27T04:38:55.421Z,100549.94
2023-02-27T04:41:29.346Z,100552.56
2023-02-27T04:43:57.403Z,100541.56
2023-02-27T04:46:27.852Z,100561.19
2023-02-27T04:49:00.755Z,100560.31
2023-02-27T04:51:35.595Z,100558.44
2023-02-27T04:54:10.864Z,100565.22
2023-02-27T04:56:46.345Z,100574.78
2023-02-27T04:59:23.216Z,100581.06
2023-02-27T05:02:01.202Z,100573.91
2023-02-27T05:04:31.822Z,100580.91
2023-02-27T05:07:00.898Z,100575.84
2023-02-27T05:09:40.864Z,100592.16
2023-02-27T05:12:28.615Z,100586.97
2023-02-27T05:15:05.406Z,100592.28
2023-02-27T05:17:37.191Z,100584.28
2023-02-27T05:20:07.097Z,100581.22
2023-02-27T05:22:42.684Z,100592.28
2023-02-27T05:25:15.379Z,100597.69
2023-02-27T05:27:48.136Z,100589.69
2023-02-27T05:30:27.720Z,100603.66
2023-02-27T05:33:03.257Z,100586.44
2023-02-27T05:35:34.324Z,100597.66
2023-02-27T05:38:04.316Z,100594.31
2023-02-27T05:40:37.640Z,100602.03
2023-02-27T05:43:19.613Z,100608.75
2023-02-27T05:45:49.517Z,100603.72
2023-02-27T05:48:20.675Z,100604.38
2023-02-27T05:50:49.227Z,100596.66
2023-02-27T05:53:19.199Z,100603.81
2023-02-27T05:55:52.621Z,100598.56
2023-02-27T05:58:43.184Z,100607.81
2023-02-27T06:01:11.717Z,100607.88
2023-02-27T06:03:40.180Z,100608.69
2023-02-27T06:06:11.078Z,100601.09
2023-02-27T06:08:37.874Z,100594.16
2023-02-27T06:11:04.404Z,100599.44
2023-02-27T06:13:30.853Z,100605.63
2023-02-27T06:15:57.256Z,100608.19
2023-02-27T06:18:23.671Z,100615.78
2023-02-27T06:20:50.155Z,100619.94
2023-02-27T06:23:17.124Z,100621.81
2023-02-27T06:25:43.920Z,100625.13
2023-02-27T06:28:10.851Z,100623.38
2023-02-27T06:30:37.995Z,100640.81
2023-02-27T06:33:04.445Z,100641.69
2023-02-27T06:35:31.402Z,100639.09
2023-02-27T06:37:57.805Z,100640.78
2023-02-27T06:40:24.443Z,100640.69
2023-02-27T06:42:51.311Z,100645.16
2023-02-27T06:45:18.047Z,100639.78
2023-02-27T06:47:44.849Z,100632.00
2023-02-27T06:50:12.965Z,100644.97
2023-02-27T06:52:40.274Z,100632.72
2023-02-27T06:55:08.262Z,100641.13
2023-02-27T06:57:34.714Z,100648.19
2023-02-27T07:00:01.295Z,100649.13
2023-02-27T07:02:27.643Z,100643.81
2023-02-27T07:04:54.029Z,100664.47
2023-02-27T07:07:33.348Z,100647.22
2023-02-27T07:10:04.200Z,100668.00
2023-02-27T07:12:30.510Z,100654.09
2023-02-27T07:14:56.816Z,100670.44
2023-02-27T07:17:23.148Z,100664.34
2023-02-27T07:19:49.525Z,100659.94
2023-02-27T07:22:15.842Z,100668.63
2023-02-27T07:24:42.257Z,100668.72
2023-02-27T07:27:08.630Z,100662.50
2023-02-27T07:29:35.922Z,100667.72
2023-02-27T07:32:02.669Z,100681.31
2023-02-27T07:34:29.029Z,100687.06
2023-02-27T07:36:55.308Z,100683.59
2023-02-27T07:39:21.655Z,100687.81
2023-02-27T07:41:47.955Z,100694.91
2023-02-27T07:44:17.013Z,100688.91
2023-02-27T07:46:44.645Z,100691.31
2023-02-27T07:49:11.122Z,100687.81
2023-02-27T07:51:37.439Z,100687.81
2023-02-27T07:54:03.822Z,100691.25
2023-02-27T07:56:30.553Z,100703.09
2023-02-27T07:58:57.004Z,100695.09
2023-02-27T08:01:23.364Z,100692.38
2023-02-27T08:03:49.903Z,100696.63
2023-02-27T08:06:16.506Z,100698.50
2023-02-27T08:08:42.904Z,100679.31
2023-02-27T08:11:09.537Z,100681.69
2023-02-27T08:13:59.450Z,100680.56
2023-02-27T08:16:22.205Z,100690.06
2023-02-27T08:18:48.567Z,100691.59
2023-02-27T08:21:15.685Z,100686.38
2023-02-27T08:23:42.715Z,100690.44
2023-02-27T08:26:09.093Z,100695.00
2023-02-27T08:28:35.428Z,100692.28
2023-02-27T08:31:01.882Z,100693.09
2023-02-27T08:33:28.236Z,100684.25
2023-02-27T08:35:55.600Z,100697.97
2023-02-27T08:38:21.948Z,100691.78
2023-02-27T08:40:50.764Z,100699.22
2023-02-27T08:43:17.052Z,100694.84
2023-02-27T08:45:43.390Z,100694.63
2023-02-27T08:48:13.900Z,100695.56
2023-02-27T08:50:40.200Z,100694.59
2023-02-27T08:53:06.535Z,100702.28
2023-02-27T08:55:32.943Z,100700.47
2023-02-27T08:57:59.286Z,100695.19
2023-02-27T09:00:26.715Z,100703.72
2023-02-27T09:02:53.891Z,100699.38
2023-02-27T09:05:20.420Z,100694.94
2023-02-27T09:07:46.714Z,100702.09
2023-02-27T09:10:13.016Z,100702.25
2023-02-27T09:12:39.409Z,100694.28
2023-02-27T09:15:07.006Z,100703.50
2023-02-27T09:17:33.399Z,100706.13
2023-02-27T09:19:59.793Z,100697.19
2023-02-27T09:22:26.142Z,100710.38
2023-02-27T09:24:52.470Z,100717.25
2023-02-27T09:27:18.800Z,100721.81
2023-02-27T09:29:45.104Z,100703.06
2023-02-27T09:32:12.278Z,100706.97
2023-02-27T09:34:38.721Z,100709.41
2023-02-27T09:37:05.057Z,100715.25
2023-02-27T09:39:31.465Z,100712.91
2023-02-27T09:42:06.553Z,100728.53
2023-02-27T09:44:46.566Z,100726.94
2023-02-27T09:47:30.033Z,100726.16
2023-02-27T09:50:39.345Z,100738.81
2023-02-27T09:53:12.380Z,100732.28
2023-02-27T09:55:40.124Z,100744.25
2023-02-27T09:58:37.906Z,100751.22
2023-02-27T10:01:23.352Z,100749.94
2023-02-27T10:04:15.109Z,100739.63
2023-02-27T10:07:09.511Z,100736.47
2023-02-27T10:09:47.661Z,100738.41
2023-02-27T10:12:36.117Z,100752.00
2023-02-27T10:15:17.228Z,100744.25
2023-02-27T10:17:49.997Z,100740.41
2023-02-27T10:20:28.696Z,100726.59
2023-02-27T10:22:59.612Z,100711.25
2023-02-27T10:25:31.726Z,100727.97
2023-02-27T10:28:12.229Z,100721.91
2023-02-27T10:30:38.763Z,100724.22
2023-02-27T10:33:15.609Z,100725.59
2023-02-27T10:35:44.790Z,100706.53
2023-02-27T10:38:14.995Z,100722.22
2023-02-27T10:40:42.608Z,100724.47
2023-02-27T10:43:09.048Z,100715.41
2023-02-27T10:45:36.977Z,100714.66
2023-02-27T10:48:05.247Z,100706.41
2023-02-27T10:50:34.634Z,100713.66
2023-02-27T10:53:04.011Z,100706.53
2023-02-27T10:55:40.931Z,100698.41
2023-02-27T10:58:07.419Z,100689.56
2023-02-27T11:00:47.866Z,100688.72
2023-02-27T11:03:24.396Z,100692.13
2023-02-27T11:05:57.154Z,100669.53
2023-02-27T11:08:26.982Z,100684.28
2023-02-27T11:11:02.842Z,100676.84
2023-02-27T11:13:32.392Z,100675.78
2023-02-27T11:16:07.746Z,100683.69
2023-02-27T11:18:36.093Z,100676.22
2023-02-27T11:21:24.606Z,100665.06
2023-02-27T11:23:55.612Z,100651.81
2023-02-27T11:26:34.473Z,100663.25
2023-02-27T11:29:11.556Z,100647.81
2023-02-27T11:31:39.691Z,100633.72
2023-02-27T11:34:08.155Z,100634.13
2023-02-27T11:36:46.772Z,100637.19
2023-02-27T11:39:36.263Z,100644.78
2023-02-27T11:42:17.457Z,100640.84
2023-02-27T11:45:13.125Z,100635.50
2023-02-27T11:47:41.058Z,100628.59
2023-02-27T11:50:34.088Z,100623.00
2023-02-27T11:53:36.964Z,100626.59
2023-02-27T11:56:08.375Z,100624.13
2023-02-27T11:58:42.725Z,100621.19
2023-02-27T12:01:18.351Z,100618.16
2023-02-27T12:03:58.042Z,100621.56
2023-02-27T12:06:36.816Z,100606.50
2023-02-27T12:09:15.970Z,100603.88
2023-02-27T12:11:46.375Z,100595.41
2023-02-27T12:14:43.208Z,100591.41
2023-02-27T12:17:23.109Z,100596.47
2023-02-27T12:20:10.006Z,100586.09
2023-02-27T12:22:40.326Z,100600.03
2023-02-27T12:25:10.858Z,100590.03
2023-02-27T12:27:49.393Z,100581.97
2023-02-27T12:30:21.161Z,100584.94
2023-02-27T12:32:51.717Z,100577.81
2023-02-27T12:35:24.042Z,100567.16
2023-02-27T12:37:51.181Z,100553.19
2023-02-27T12:40:19.342Z,100561.78
2023-02-27T12:43:11.685Z,100559.88
2023-02-27T12:45:46.745Z,100555.41
2023-02-27T12:48:31.013Z,100561.13
2023-02-27T12:51:17.550Z,100551.94
2023-02-27T12:54:21.328Z,100572.63
2023-02-27T12:57:05.955Z,100561.47
2023-02-27T12:59:56.729Z,100565.38
2023-02-27T13:02:41.827Z,100558.84
2023-02-27T13:05:14.749Z,100561.38
2023-02-27T13:08:05.894Z,100550.84
2023-02-27T13:10:51.186Z,100539.00
2023-02-27T13:13:41.821Z,100542.47
2023-02-27T13:16:20.792Z,100546.78
2023-02-27T13:19:12.682Z,100544.63
2023-02-27T13:21:54.716Z,100539.88
2023-02-27T13:24:30.145Z,100535.09
2023-02-27T13:27:11.817Z,100542.44
2023-02-27T13:29:41.166Z,100540.06
2023-02-27T13:32:36.504Z,100534.84
2023-02-27T13:35:23.523Z,100549.59
2023-02-27T13:38:30.844Z,100543.41
2023-02-27T13:40:57.157Z,100554.47
2023-02-27T13:43:46.372Z,100554.41
2023-02-27T13:46:28.378Z,100557.97
2023-02-27T13:49:28.277Z,100550.91
2023-02-27T13:51:58.534Z,100556.59
2023-02-27T13:54:31.513Z,100554.03
2023-02-27T13:57:16.556Z,100563.34
2023-02-27T13:59:51.949Z,100549.81
2023-02-27T14:02:33.147Z,100562.84
2023-02-27T14:05:04.660Z,100546.28
2023-02-27T14:07:55.564Z,100562.91
2023-02-27T14:10:28.690Z,100567.84
2023-02-27T14:12:57.361Z,100559.72
2023-02-27T14:15:26.444Z,100578.41
2023-02-27T14:18:09.628Z,100569.84
2023-02-27T14:20:38.810Z,100581.84
2023-02-27T14:23:25.478Z,100588.22
2023-02-27T14:25:57.793Z,100590.03
2023-02-27T14:28:43.661Z,100582.84
2023-02-27T14:31:34.632Z,100588.44
2023-02-27T14:34:05.662Z,100583.09
2023-02-27T14:36:39.895Z,100581.06
2023-02-27T14:39:06.577Z,100578.03
2023-02-27T14:41:49.470Z,100583.97
2023-02-27T14:44:24.488Z,100578.16
2023-02-27T14:46:53.253Z,100573.47
2023-02-27T14:49:31.401Z,100585.78
2023-02-27T14:52:10.765Z,100580.53
2023-02-27T14:54:37.066Z,100587.19
2023-02-27T14:57:06.461Z,100582.47
2023-02-27T14:59:44.014Z,100581.50
2023-02-27T15:02:28.907Z,100587.91
2023-02-27T15:05:15.605Z,100589.84
2023-02-27T15:07:45.867Z,100579.03
2023-02-27T15:10:25.003Z,100592.00
2023-02-27T15:12:54.432Z,100591.38
2023-02-27T15:15:21.778Z,100593.28
2023-02-27T15:17:52.780Z,100605.06
2023-02-27T15:20:29.734Z,100602.78
2023-02-27T15:23:01.390Z,100608.34
2023-02-27T15:25:37.481Z,100601.13
2023-02-27T15:28:20.848Z,100598.41
2023-02-27T15:30:53.075Z,100594.47
2023-02-27T15:33:25.441Z,100578.91
2023-02-27T15:35:51.930Z,100582.41
2023-02-27T15:38:30.049Z,100592.88
2023-02-27T15:40:58.084Z,100605.81
2023-02-27T15:43:26.710Z,100600.28
2023-02-27T15:45:53.641Z,100596.31
2023-02-27T15:48:21.125Z,100596.94
2023-02-27T15:51:08.966Z,100604.47
2023-02-27T15:53:35.607Z,100596.41
2023-02-27T15:56:06.018Z,100601.06
2023-02-27T15:58:38.693Z,100589.66
2023-02-27T16:01:12.966Z,100598.44
2023-02-27T16:03:45.134Z,100599.22
2023-02-27T16:06:23.198Z,100596.97
2023-02-27T16:09:02.352Z,100604.03
2023-02-27T16:11:31.260Z,100602.28
2023-02-27T16:13:58.185Z,100608.13
2023-02-27T16:16:31.486Z,100616.19
2023-02-27T16:18:59.949Z,100612.13
2023-02-27T16:21:33.452Z,100619.81
2023-02-27T16:24:20.871Z,100630.41
2023-02-27T16:26:52.845Z,100628.28
2023-02-27T16:29:21.613Z,100634.16
2023-02-27T16:31:57.872Z,100640.88
2023-02-27T16:34:45.157Z,100634.84
2023-02-27T16:37:26.960Z,100642.25
2023-02-27T16:39:54.330Z,100645.81
2023-02-27T16:42:21.600Z,100634.88
2023-02-27T16:44:47.949Z,100646.25
2023-02-27T16:47:14.344Z,100652.69
2023-02-27T16:49:40.706Z,100654.19
2023-02-27T16:52:10.319Z,100652.69
2023-02-27T16:54:36.808Z,100658.34
2023-02-27T16:57:03.794Z,100668.06
2023-02-27T16:59:34.126Z,100666.28
2023-02-27T17:02:03.241Z,100657.59
2023-02-27T17:04:30.132Z,100665.16
2023-02-27T17:06:58.579Z,100659.50
2023-02-27T17:09:27.266Z,100673.19
2023-02-27T17:11:54.954Z,100666.19
2023-02-27T17:14:22.135Z,100677.72
2023-02-27T17:16:48.505Z,100675.81
2023-02-27T17:19:15.660Z,100683.94
2023-02-27T17:21:41.975Z,100676.66
2023-02-27T17:24:08.688Z,100682.75
2023-02-27T17:26:35.621Z,100685.88
2023-02-27T17:29:03.017Z,100684.56
2023-02-27T17:31:29.480Z,100694.81
2023-02-27T17:33:55.996Z,100685.78
2023-02-27T17:36:23.059Z,100676.72
2023-02-27T17:38:55.222Z,100692.00
2023-02-27T17:41:21.668Z,100701.09
2023-02-27T17:43:53.714Z,100700.16
2023-02-27T17:46:20.083Z,100701.00
2023-02-27T17:48:46.452Z,100704.44
2023-02-27T17:51:15.099Z,100702.56
2023-02-27T17:53:42.298Z,100700.81
2023-02-27T17:56:09.815Z,100701.66
2023-02-27T17:58:36.368Z,100706.28
2023-02-27T18:01:11.396Z,100705.41
2023-02-27T18:03:38.518Z,100703.94
2023-02-27T18:06:05.282Z,100699.22
2023-02-27T18:08:31.786Z,100718.97
2023-02-27T18:10:58.651Z,100705.63
2023-02-27T18:13:27.141Z,100703.13
2023-02-27T18:15:55.085Z,100705.63
2023-02-27T18:18:22.562Z,100712.22
2023-02-27T18:20:59.458Z,100712.03
2023-02-27T18:23:25.784Z,100712.03
2023-02-27T18:25:56.808Z,100707.63
2023-02-27T18:28:23.444Z,100716.28
2023-02-27T18:30:50.038Z,100712.19
2023-02-27T18:33:16.504Z,100719.06
2023-02-27T18:35:42.849Z,100705.25
2023-02-27T18:38:09.198Z,100708.00
2023-02-27T18:40:35.602Z,100699.75
2023-02-27T18:43:01.929Z,100714.63
2023-02-27T18:45:29.610Z,100720.34
2023-02-27T18:47:56.092Z,100713.72
2023-02-27T18:50:23.228Z,100716.31
2023-02-27T18:52:50.047Z,100716.81
2023-02-27T18:55:17.492Z,100705.72
2023-02-27T18:57:44.925Z,100693.22
2023-02-27T19:00:12.613Z,100706.78
2023-02-27T19:02:41.612Z,100692.22
2023-02-27T19:05:10.968Z,100707.22
2023-02-27T19:07:38.184Z,100701.84
2023-02-27T19:10:05.908Z,100699.31
2023-02-27T19:12:32.217Z,100711.44
2023-02-27T19:14:58.526Z,100716.28
2023-02-27T19:17:25.613Z,100711.44
2023-02-27T19:19:55.273Z,100705.06
2023-02-27T19:22:21.685Z,100704.41
2023-02-27T19:24:49.634Z,100712.00
2023-02-27T19:27:17.055Z,100715.59
2023-02-27T19:29:43.592Z,100724.09
2023-02-27T19:32:09.996Z,100714.63
2023-02-27T19:34:36.413Z,100718.00
2023-02-27T19:37:02.916Z,100723.41
2023-02-27T19:39:29.264Z,100724.03
2023-02-27T19:41:56.384Z,100720.94
2023-02-27T19:44:23.139Z,100727.78
2023-02-27T19:46:51.835Z,100724.91
2023-02-27T19:49:19.136Z,100733.19
2023-02-27T19:51:45.440Z,100726.94
2023-02-27T19:54:13.704Z,100735.03
2023-02-27T19:56:40.029Z,100725.22
2023-02-27T19:59:06.340Z,100732.66
2023-02-27T20:01:36.057Z,100734.53
2023-02-27T20:04:03.145Z,100736.97
2023-02-27T20:06:31.941Z,100741.31
2023-02-27T20:08:59.108Z,100728.84
2023-02-27T20:11:29.767Z,100746.34
2023-02-27T20:13:56.554Z,100752.63
2023-02-27T20:16:24.065Z,100751.00
2023-02-27T20:18:51.262Z,100738.50
2023-02-27T20:21:20.228Z,100747.84
2023-02-27T20:23:47.198Z,100749.63
2023-02-27T20:26:18.289Z,100746.94
2023-02-27T20:28:44.723Z,100746.06
2023-02-27T20:31:12.612Z,100740.50
2023-02-27T20:33:39.761Z,100737.63
2023-02-27T20:36:08.605Z,100742.50
2023-02-27T20:38:39.001Z,100733.44
2023-02-27T20:41:11.052Z,100739.00
2023-02-27T20:43:38.407Z,100735.41
2023-02-27T20:46:06.941Z,100739.81
2023-02-27T20:48:33.606Z,100740.84
2023-02-27T20:51:07.979Z,100738.78
2023-02-27T20:53:36.410Z,100709.47
2023-02-27T20:56:03.344Z,100732.53
2023-02-27T20:58:29.696Z,100729.72
2023-02-27T21:00:56.247Z,100730.16
2023-02-27T21:03:23.150Z,100729.09
2023-02-27T21:05:50.964Z,100730.47
2023-02-27T21:08:18.406Z,100727.53
2023-02-27T21:10:46.434Z,100739.47
2023-02-27T21:13:12.793Z,100733.63
2023-02-27T21:15:40.686Z,100732.53
2023-02-27T21:18:08.744Z,100745.25
2023-02-27T21:20:35.048Z,100734.00
2023-02-27T21:23:01.429Z,100723.06
2023-02-27T21:25:28.327Z,100733.88
2023-02-27T21:28:02.126Z,100725.13
2023-02-27T21:30:29.859Z,100728.97
2023-02-27T21:32:57.517Z,100731.31
2023-02-27T21:35:24.344Z,100732.66
2023-02-27T21:37:53.418Z,100726.31
2023-02-27T21:40:19.812Z,100723.63
2023-02-27T21:42:47.047Z,100722.09
2023-02-27T21:45:13.358Z,100724.59
2023-02-27T21:47:39.783Z,100710.28
2023-02-27T21:50:14.074Z,100723.00
2023-02-27T21:52:44.223Z,100722.09
2023-02-27T21:55:12.015Z,100721.28
2023-02-27T21:57:39.489Z,100722.25
2023-02-27T22:00:10.876Z,100719.44
2023-02-27T22:02:39.179Z,100713.59
2023-02-27T22:05:06.841Z,100707.09
2023-02-27T22:07:33.205Z,100710.91
2023-02-27T22:09:59.536Z,100711.19
2023-02-27T22:12:26.839Z,100718.81
2023-02-27T22:14:53.152Z,100718.81
2023-02-27T22:17:19.444Z,100718.59
2023-02-27T22:19:45.743Z,100717.91
2023-02-27T22:22:12.062Z,100717.09
2023-02-27T22:24:38.344Z,100716.81
2023-02-27T22:27:04.629Z,100710.34
2023-02-27T22:29:31.525Z,100715.03
2023-02-27T22:31:57.889Z,100721.81
2023-02-27T22:34:24.218Z,100721.41
2023-02-27T22:36:52.355Z,100716.94
2023-02-27T22:39:19.566Z,100716.81
2023-02-27T22:41:46.125Z,100720.38
2023-02-27T22:44:14.365Z,100720.25
2023-02-27T22:46:43.970Z,100720.88
2023-02-27T22:49:13.683Z,100712.75
2023-02-27T22:51:40.396Z,100713.78
2023-02-27T22:54:08.135Z,100712.91
2023-02-27T22:56:36.404Z,100722.50
2023-02-27T22:59:04.203Z,100702.44
2023-02-27T23:01:32.755Z,100713.78
2023-02-27T23:04:03.956Z,100715.31
2023-02-27T23:06:33.569Z,100720.44
2023-02-27T23:09:01.086Z,100725.41
2023-02-27T23:11:28.462Z,100723.66
2023-02-27T23:13:55.246Z,100719.75
2023-02-27T23:16:22.142Z,100727.28
2023-02-27T23:18:54.380Z,100733.00
2023-02-27T23:21:24.096Z,100734.56
2023-02-27T23:23:53.577Z,100738.22
2023-02-27T23:26:20.378Z,100737.88
2023-02-27T23:28:46.685Z,100729.84
2023-02-27T23:31:13.031Z,100741.25
2023-02-27T23:33:39.336Z,100742.34
2023-02-27T23:36:06.114Z,100741.44
2023-02-27T23:38:32.420Z,100732.69
2023-02-27T23:41:05.009Z,100741.63
2023-02-27T23:43:31.340Z,100747.59
2023-02-27T23:45:57.796Z,100736.53
2023-02-27T23:48:24.194Z,100737.25
2023-02-27T23:50:50.794Z,100745.72
2023-02-27T23:53:17.191Z,100740.94
2023-02-27T23:55:43.962Z,100733.28
2023-02-27T23:58:11.172Z,100737.03
